createdAt,value
2023-05-02T00:01:05.355Z,8.13
2023-05-02T00:03:30.047Z,8.00
2023-05-02T00:05:54.724Z,8.63
2023-05-02T00:08:20.843Z,7.90
2023-05-02T00:10:45.418Z,8.00
2023-05-02T00:13:10.052Z,7.88
2023-05-02T00:15:34.714Z,7.13
2023-05-02T00:17:59.319Z,7.43
2023-05-02T00:20:24.258Z,7.32
2023-05-02T00:22:49.034Z,7.22
2023-05-02T00:25:17.259Z,7.10
2023-05-02T00:27:41.734Z,7.45
2023-05-02T00:30:08.022Z,7.45
2023-05-02T00:32:32.722Z,9.00
2023-05-02T00:34:57.473Z,7.65
2023-05-02T00:37:21.997Z,7.07
2023-05-02T00:39:46.933Z,7.03
2023-05-02T00:42:13.159Z,7.32
2023-05-02T00:44:37.777Z,7.38
2023-05-02T00:47:03.081Z,7.88
2023-05-02T00:49:28.579Z,7.93
2023-05-02T00:51:53.073Z,7.70
2023-05-02T00:54:17.676Z,8.57
2023-05-02T00:56:42.547Z,8.25
2023-05-02T00:59:10.140Z,8.20
2023-05-02T01:01:46.041Z,8.07
2023-05-02T01:04:23.093Z,8.45
2023-05-02T01:07:01.371Z,7.50
2023-05-02T01:09:38.669Z,7.75
2023-05-02T01:12:06.735Z,7.50
2023-05-02T01:14:36.505Z,8.20
2023-05-02T01:17:05.705Z,7.47
2023-05-02T01:19:35.273Z,7.45
2023-05-02T01:22:03.205Z,7.25
2023-05-02T01:24:34.039Z,6.72
2023-05-02T01:27:08.770Z,7.53
2023-05-02T01:29:36.063Z,7.70
2023-05-02T01:32:03.259Z,7.35
2023-05-02T01:34:30.783Z,6.80
2023-05-02T01:36:58.747Z,6.93
2023-05-02T01:39:27.518Z,7.32
2023-05-02T01:41:54.712Z,6.50
2023-05-02T01:44:21.593Z,7.40
2023-05-02T01:46:48.748Z,6.72
2023-05-02T01:49:14.626Z,6.30
2023-05-02T01:51:46.051Z,6.05
2023-05-02T01:54:11.517Z,5.78
2023-05-02T01:56:40.035Z,6.60
2023-05-02T01:59:06.530Z,5.78
2023-05-02T02:01:31.834Z,6.32
2023-05-02T02:03:59.802Z,6.18
2023-05-02T02:06:24.709Z,5.78
2023-05-02T02:08:49.616Z,5.82
2023-05-02T02:11:18.215Z,5.80
2023-05-02T02:13:50.299Z,5.57
2023-05-02T02:16:18.071Z,5.72
2023-05-02T02:18:46.037Z,5.95
2023-05-02T02:21:16.820Z,5.85
2023-05-02T02:23:44.643Z,5.80
2023-05-02T02:26:10.575Z,5.95
2023-05-02T02:28:35.947Z,5.80
2023-05-02T02:31:00.556Z,5.63
2023-05-02T02:33:30.697Z,6.22
2023-05-02T02:36:04.589Z,5.78
2023-05-02T02:38:38.056Z,5.68
2023-05-02T02:41:12.161Z,5.40
2023-05-02T02:43:45.481Z,6.30
2023-05-02T02:46:22.210Z,5.65
2023-05-02T02:48:56.718Z,5.43
2023-05-02T02:51:32.988Z,5.28
2023-05-02T02:54:19.045Z,5.68
2023-05-02T02:56:52.315Z,5.40
2023-05-02T02:59:21.753Z,6.03
2023-05-02T03:01:54.540Z,6.05
2023-05-02T03:04:23.065Z,5.80
2023-05-02T03:06:47.764Z,5.65
2023-05-02T03:09:22.294Z,5.75
2023-05-02T03:11:48.390Z,5.35
2023-05-02T03:14:13.713Z,5.47
2023-05-02T03:16:40.307Z,5.40
2023-05-02T03:21:35.561Z,5.20
2023-05-02T03:24:08.120Z,5.78
2023-05-02T03:26:34.310Z,5.60
2023-05-02T03:28:59.910Z,6.75
2023-05-02T03:31:30.574Z,5.55
2023-05-02T03:33:55.240Z,5.05
2023-05-02T03:36:20.429Z,5.38
2023-05-02T03:38:45.053Z,5.63
2023-05-02T03:41:11.376Z,5.50
2023-05-02T03:43:37.865Z,5.18
2023-05-02T03:46:07.918Z,5.10
2023-05-02T03:48:35.673Z,5.13
2023-05-02T03:51:00.809Z,6.15
2023-05-02T03:53:25.530Z,5.18
2023-05-02T03:55:54.725Z,5.10
2023-05-02T03:58:28.664Z,5.03
2023-05-02T04:00:56.778Z,5.25
2023-05-02T04:03:23.167Z,6.32
2023-05-02T04:05:48.853Z,4.65
2023-05-02T04:08:15.091Z,5.30
2023-05-02T04:10:41.098Z,5.45
2023-05-02T04:13:08.437Z,4.80
2023-05-02T04:15:37.277Z,4.60
2023-05-02T04:18:04.748Z,4.95
2023-05-02T04:20:30.519Z,5.47
2023-05-02T04:22:57.166Z,4.63
2023-05-02T04:25:22.064Z,4.65
2023-05-02T04:27:48.900Z,4.50
2023-05-02T04:30:17.812Z,4.20
2023-05-02T04:32:52.067Z,6.05
2023-05-02T04:35:19.192Z,4.88
2023-05-02T04:37:44.557Z,4.32
2023-05-02T04:40:10.694Z,4.57
2023-05-02T04:42:36.569Z,4.38
2023-05-02T04:45:27.329Z,3.92
2023-05-02T04:47:52.649Z,4.28
2023-05-02T04:50:22.027Z,4.60
2023-05-02T04:52:47.426Z,4.88
2023-05-02T04:55:13.077Z,5.03
2023-05-02T04:57:40.683Z,4.13
2023-05-02T05:00:09.948Z,4.75
2023-05-02T05:02:35.291Z,5.13
2023-05-02T05:05:03.193Z,4.07
2023-05-02T05:07:30.761Z,4.35
2023-05-02T05:09:56.086Z,4.40
2023-05-02T05:12:29.037Z,4.93
2023-05-02T05:14:53.990Z,4.18
2023-05-02T05:17:21.994Z,4.30
2023-05-02T05:19:47.201Z,4.40
2023-05-02T05:22:11.804Z,5.35
2023-05-02T05:24:39.305Z,4.50
2023-05-02T05:27:05.296Z,4.22
2023-05-02T05:29:32.668Z,3.97
2023-05-02T05:31:57.837Z,4.40
2023-05-02T05:34:25.241Z,4.90
2023-05-02T05:36:52.465Z,4.63
2023-05-02T05:39:18.615Z,5.35
2023-05-02T05:41:48.598Z,5.00
2023-05-02T05:44:13.675Z,5.38
2023-05-02T05:46:38.685Z,4.38
2023-05-02T05:49:05.330Z,5.15
2023-05-02T05:51:31.561Z,4.55
2023-05-02T05:53:57.675Z,5.28
2023-05-02T05:56:23.023Z,5.28
2023-05-02T05:59:12.775Z,5.13
2023-05-02T06:01:38.195Z,5.80
2023-05-02T06:04:05.117Z,5.00
2023-05-02T06:06:31.818Z,4.82
2023-05-02T06:08:56.860Z,5.05
2023-05-02T06:11:24.508Z,7.28
2023-05-02T06:13:49.134Z,5.38
2023-05-02T06:16:15.424Z,4.57
2023-05-02T06:18:39.999Z,5.03
2023-05-02T06:21:06.246Z,4.35
2023-05-02T06:23:30.811Z,5.72
2023-05-02T06:25:55.796Z,4.35
2023-05-02T06:28:20.935Z,4.70
2023-05-02T06:30:45.648Z,4.47
2023-05-02T06:33:12.603Z,4.32
2023-05-02T06:35:42.097Z,4.97
2023-05-02T06:40:31.366Z,4.13
2023-05-02T06:42:56.910Z,4.60
2023-05-02T06:45:21.856Z,5.55
2023-05-02T06:47:46.557Z,4.80
2023-05-02T06:50:13.091Z,4.55
2023-05-02T06:52:37.647Z,4.90
2023-05-02T06:55:03.393Z,5.03
2023-05-02T06:57:29.066Z,4.90
2023-05-02T06:59:53.837Z,5.43
2023-05-02T07:02:18.795Z,5.10
2023-05-02T07:04:43.670Z,5.00
2023-05-02T07:07:09.856Z,5.05
2023-05-02T07:09:34.532Z,4.97
2023-05-02T07:11:59.240Z,5.60
2023-05-02T07:14:24.016Z,5.20
2023-05-02T07:16:48.743Z,5.93
2023-05-02T07:19:13.520Z,5.00
2023-05-02T07:21:38.087Z,6.07
2023-05-02T07:24:04.143Z,5.82
2023-05-02T07:26:30.069Z,5.82
2023-05-02T07:28:54.731Z,5.53
2023-05-02T07:31:19.360Z,4.88
2023-05-02T07:33:44.000Z,5.65
2023-05-02T07:36:09.089Z,6.10
2023-05-02T07:38:33.728Z,5.38
2023-05-02T07:41:03.348Z,5.28
2023-05-02T07:43:29.411Z,4.80
2023-05-02T07:45:54.425Z,4.10
2023-05-02T07:48:22.316Z,5.55
2023-05-02T07:50:46.851Z,5.60
2023-05-02T07:53:11.665Z,4.80
2023-05-02T07:55:36.580Z,4.40
2023-05-02T07:58:02.982Z,4.80
2023-05-02T08:00:27.726Z,3.92
2023-05-02T08:02:52.520Z,4.55
2023-05-02T08:05:17.387Z,5.60
2023-05-02T08:07:41.979Z,4.35
2023-05-02T08:10:08.786Z,4.63
2023-05-02T08:12:33.438Z,3.95
2023-05-02T08:14:59.490Z,3.88
2023-05-02T08:17:24.217Z,4.28
2023-05-02T08:19:48.806Z,4.50
2023-05-02T08:22:13.519Z,4.28
2023-05-02T08:24:39.612Z,4.07
2023-05-02T08:27:04.759Z,4.22
2023-05-02T08:29:29.397Z,4.25
2023-05-02T08:31:55.371Z,4.07
2023-05-02T08:34:20.061Z,4.45
2023-05-02T08:36:44.733Z,3.85
2023-05-02T08:39:09.581Z,3.75
2023-05-02T08:41:34.242Z,4.22
2023-05-02T08:43:59.173Z,4.15
2023-05-02T08:46:27.166Z,4.38
2023-05-02T08:48:53.713Z,4.03
2023-05-02T08:53:50.431Z,3.85
2023-05-02T08:56:15.189Z,4.07
2023-05-02T08:58:41.428Z,3.47
2023-05-02T09:01:11.452Z,4.32
2023-05-02T09:03:37.803Z,4.30
2023-05-02T09:06:08.252Z,3.88
2023-05-02T09:08:32.857Z,4.05
2023-05-02T09:10:57.412Z,3.85
2023-05-02T09:13:35.482Z,4.05
2023-05-02T09:16:00.917Z,3.50
2023-05-02T09:18:25.788Z,4.03
2023-05-02T09:20:50.302Z,4.03
2023-05-02T09:23:16.196Z,3.70
2023-05-02T09:25:41.640Z,4.60
2023-05-02T09:28:06.358Z,3.88
2023-05-02T09:30:31.273Z,3.88
2023-05-02T09:32:56.372Z,4.03
2023-05-02T09:35:24.830Z,4.30
2023-05-02T09:37:51.019Z,4.00
2023-05-02T09:40:17.630Z,4.47
2023-05-02T09:42:42.171Z,4.00
2023-05-02T09:45:08.008Z,3.92
2023-05-02T09:47:32.652Z,4.10
2023-05-02T09:49:57.271Z,3.80
2023-05-02T09:52:22.786Z,4.45
2023-05-02T09:54:48.121Z,4.00
2023-05-02T09:57:15.943Z,4.22
2023-05-02T09:59:41.521Z,4.13
2023-05-02T10:02:10.492Z,4.20
2023-05-02T10:04:35.759Z,4.45
2023-05-02T10:07:01.935Z,4.07
2023-05-02T10:09:28.148Z,4.97
2023-05-02T10:11:54.841Z,5.28
2023-05-02T10:14:22.821Z,4.00
2023-05-02T10:16:55.153Z,3.53
2023-05-02T10:19:29.109Z,3.88
2023-05-02T10:21:55.037Z,3.78
2023-05-02T10:24:21.116Z,4.20
2023-05-02T10:26:46.283Z,4.07
2023-05-02T10:29:11.493Z,4.05
2023-05-02T10:31:39.917Z,4.00
2023-05-02T10:34:06.292Z,3.88
2023-05-02T10:36:33.688Z,3.72
2023-05-02T10:38:58.469Z,4.63
2023-05-02T10:41:28.056Z,4.13
2023-05-02T10:43:52.898Z,3.78
2023-05-02T10:46:37.493Z,3.65
2023-05-02T10:49:06.218Z,3.67
2023-05-02T10:51:31.504Z,4.40
2023-05-02T10:53:57.689Z,3.90
2023-05-02T10:56:26.970Z,3.92
2023-05-02T10:58:54.092Z,3.80
2023-05-02T11:01:39.707Z,3.60
2023-05-02T11:04:07.516Z,3.60
2023-05-02T11:06:34.309Z,3.83
2023-05-02T11:09:33.326Z,3.65
2023-05-02T11:11:58.182Z,3.95
2023-05-02T11:14:44.387Z,3.80
2023-05-02T11:17:12.437Z,3.53
2023-05-02T11:20:25.827Z,3.58
2023-05-02T11:22:52.262Z,3.45
2023-05-02T11:25:47.660Z,3.58
2023-05-02T11:28:43.545Z,3.70
2023-05-02T11:31:10.271Z,4.40
2023-05-02T11:33:34.973Z,3.67
2023-05-02T11:36:21.896Z,3.33
2023-05-02T11:38:51.681Z,3.63
2023-05-02T11:43:49.084Z,3.80
2023-05-02T11:46:17.547Z,3.38
2023-05-02T11:48:43.348Z,3.22
2023-05-02T11:51:08.089Z,3.85
2023-05-02T11:53:33.397Z,3.75
2023-05-02T11:56:01.348Z,4.10
2023-05-02T11:58:29.761Z,4.15
2023-05-02T12:00:55.216Z,4.10
2023-05-02T12:03:32.005Z,3.97
2023-05-02T12:05:57.900Z,3.50
2023-05-02T12:08:24.637Z,3.70
2023-05-02T12:10:49.432Z,3.50
2023-05-02T12:13:15.705Z,3.22
2023-05-02T12:15:43.133Z,3.15
2023-05-02T12:18:08.819Z,3.38
2023-05-02T12:20:33.638Z,3.38
2023-05-02T12:22:58.791Z,3.88
2023-05-02T12:25:23.585Z,3.47
2023-05-02T12:28:01.362Z,3.53
2023-05-02T12:30:33.267Z,3.50
2023-05-02T12:33:00.724Z,3.92
2023-05-02T12:35:25.704Z,3.78
2023-05-02T12:37:50.926Z,3.80
2023-05-02T12:40:17.929Z,3.40
2023-05-02T12:42:42.784Z,3.45
2023-05-02T12:45:19.838Z,4.10
2023-05-02T12:47:48.013Z,3.88
2023-05-02T12:50:12.930Z,4.10
2023-05-02T12:52:51.339Z,3.65
2023-05-02T12:55:19.858Z,4.53
2023-05-02T12:57:45.660Z,3.97
2023-05-02T13:00:11.906Z,3.08
2023-05-02T13:02:38.921Z,3.88
2023-05-02T13:05:14.768Z,3.58
2023-05-02T13:07:39.412Z,3.83
2023-05-02T13:10:04.241Z,3.80
2023-05-02T13:12:29.609Z,3.83
2023-05-02T13:14:54.169Z,3.90
2023-05-02T13:17:18.896Z,3.60
2023-05-02T13:19:50.503Z,3.90
2023-05-02T13:22:28.079Z,3.55
2023-05-02T13:24:52.810Z,4.15
2023-05-02T13:27:18.602Z,3.90
2023-05-02T13:29:43.468Z,4.15
2023-05-02T13:32:08.118Z,3.60
2023-05-02T13:34:32.845Z,3.90
2023-05-02T13:36:57.624Z,3.55
2023-05-02T13:39:24.177Z,3.55
2023-05-02T13:41:48.648Z,3.25
2023-05-02T13:44:15.643Z,3.72
2023-05-02T13:46:40.385Z,3.75
2023-05-02T13:49:05.267Z,3.85
2023-05-02T13:51:31.456Z,3.20
2023-05-02T13:53:56.623Z,3.28
2023-05-02T13:56:22.565Z,3.25
2023-05-02T13:58:47.236Z,3.50
2023-05-02T14:01:11.891Z,4.75
2023-05-02T14:03:37.209Z,3.72
2023-05-02T14:06:01.929Z,3.60
2023-05-02T14:08:26.656Z,3.50
2023-05-02T14:10:56.719Z,3.72
2023-05-02T14:13:24.738Z,3.80
2023-05-02T14:15:49.345Z,3.00
2023-05-02T14:18:14.497Z,3.47
2023-05-02T14:20:39.290Z,3.17
2023-05-02T14:23:05.457Z,3.03
2023-05-02T14:25:35.321Z,3.75
2023-05-02T14:28:00.624Z,3.30
2023-05-02T14:30:26.652Z,3.33
2023-05-02T14:32:52.284Z,2.85
2023-05-02T14:35:17.203Z,3.20
2023-05-02T14:37:45.113Z,3.22
2023-05-02T14:40:10.933Z,3.67
2023-05-02T14:42:36.002Z,3.17
2023-05-02T14:45:02.448Z,3.50
2023-05-02T14:47:34.732Z,3.37
2023-05-02T14:50:00.093Z,3.13
2023-05-02T14:52:24.976Z,3.58
2023-05-02T14:54:50.064Z,3.65
2023-05-02T14:57:15.617Z,3.08
2023-05-02T14:59:40.598Z,3.35
2023-05-02T15:02:08.398Z,2.80
2023-05-02T15:04:37.151Z,2.58
2023-05-02T15:07:02.169Z,3.03
2023-05-02T15:09:31.988Z,3.65
2023-05-02T15:11:56.936Z,3.22
2023-05-02T15:14:22.072Z,3.00
2023-05-02T15:16:47.105Z,2.85
2023-05-02T15:19:12.092Z,2.80
2023-05-02T15:21:38.494Z,2.60
2023-05-02T15:24:03.968Z,3.53
2023-05-02T15:26:29.196Z,3.10
2023-05-02T15:28:54.510Z,2.90
2023-05-02T15:31:19.397Z,2.95
2023-05-02T15:33:46.403Z,2.88
2023-05-02T15:36:11.561Z,3.30
2023-05-02T15:38:39.767Z,3.20
2023-05-02T15:41:04.376Z,3.55
2023-05-02T15:43:28.944Z,3.10
2023-05-02T15:45:54.143Z,3.25
2023-05-02T15:48:18.689Z,3.17
2023-05-02T15:50:44.209Z,3.03
2023-05-02T15:53:09.822Z,2.92
2023-05-02T15:55:36.600Z,2.58
2023-05-02T15:58:01.515Z,2.67
2023-05-02T16:00:26.825Z,3.58
2023-05-02T16:02:51.594Z,3.08
2023-05-02T16:05:16.560Z,2.63
2023-05-02T16:07:41.081Z,2.70
2023-05-02T16:10:06.467Z,2.97
2023-05-02T16:12:32.539Z,2.95
2023-05-02T16:14:57.108Z,4.10
2023-05-02T16:17:21.849Z,3.47
2023-05-02T16:19:46.563Z,3.55
2023-05-02T16:22:11.478Z,4.03
2023-05-02T16:24:36.188Z,3.13
2023-05-02T16:27:02.009Z,3.65
2023-05-02T16:29:28.249Z,3.67
2023-05-02T16:31:53.263Z,3.53
2023-05-02T16:34:23.362Z,3.55
2023-05-02T16:36:49.746Z,3.92
2023-05-02T16:39:15.063Z,3.40
2023-05-02T16:41:39.804Z,3.45
2023-05-02T16:44:04.578Z,3.30
2023-05-02T16:46:30.871Z,3.70
2023-05-02T16:48:55.869Z,3.83
2023-05-02T16:51:24.001Z,3.20
2023-05-02T16:53:48.861Z,3.60
2023-05-02T16:56:13.471Z,3.30
2023-05-02T16:58:42.313Z,2.60
2023-05-02T17:01:07.586Z,3.58
2023-05-02T17:03:34.276Z,3.08
2023-05-02T17:06:02.325Z,3.15
2023-05-02T17:08:27.351Z,3.13
2023-05-02T17:10:52.704Z,2.97
2023-05-02T17:13:17.540Z,3.85
2023-05-02T17:15:42.302Z,3.03
2023-05-02T17:18:07.323Z,2.92
2023-05-02T17:20:34.222Z,3.17
2023-05-02T17:23:00.458Z,2.88
2023-05-02T17:25:25.132Z,3.70
2023-05-02T17:27:49.889Z,3.15
2023-05-02T17:30:15.762Z,3.00
2023-05-02T17:32:42.540Z,2.80
2023-05-02T17:35:08.258Z,2.80
2023-05-02T17:37:34.516Z,3.58
2023-05-02T17:40:01.263Z,2.70
2023-05-02T17:42:32.014Z,2.95
2023-05-02T17:44:56.992Z,2.65
2023-05-02T17:47:23.873Z,2.83
2023-05-02T17:49:51.413Z,3.15
2023-05-02T17:52:15.935Z,3.28
2023-05-02T17:54:45.200Z,2.67
2023-05-02T17:57:52.420Z,3.03
2023-05-02T18:00:18.901Z,2.88
2023-05-02T18:02:44.127Z,3.42
2023-05-02T18:05:09.665Z,3.15
2023-05-02T18:07:45.623Z,3.00
2023-05-02T18:10:14.869Z,3.47
2023-05-02T18:12:44.760Z,2.70
2023-05-02T18:15:16.890Z,2.70
2023-05-02T18:17:53.664Z,2.92
2023-05-02T18:20:18.987Z,3.13
2023-05-02T18:22:43.614Z,3.15
2023-05-02T18:25:09.203Z,3.17
2023-05-02T18:27:48.750Z,2.63
2023-05-02T18:30:16.404Z,3.00
2023-05-02T18:32:58.406Z,3.30
2023-05-02T18:35:23.549Z,2.50
2023-05-02T18:37:48.603Z,2.53
2023-05-02T18:40:13.896Z,2.75
2023-05-02T18:42:40.485Z,2.95
2023-05-02T18:45:10.506Z,2.40
2023-05-02T18:47:39.126Z,3.20
2023-05-02T18:50:05.597Z,2.15
2023-05-02T18:52:34.178Z,2.42
2023-05-02T18:55:02.482Z,2.85
2023-05-02T18:57:30.462Z,2.92
2023-05-02T19:00:00.263Z,2.30
2023-05-02T19:04:57.437Z,2.38
2023-05-02T19:07:24.808Z,2.38
2023-05-02T19:09:50.405Z,2.65
2023-05-02T19:12:15.196Z,3.22
2023-05-02T19:14:41.215Z,2.55
2023-05-02T19:17:07.478Z,2.63
2023-05-02T19:19:37.556Z,2.88
2023-05-02T19:22:02.859Z,2.97
2023-05-02T19:24:28.712Z,2.42
2023-05-02T19:26:55.526Z,3.55
2023-05-02T19:29:32.288Z,3.00
2023-05-02T19:32:10.113Z,2.97
2023-05-02T19:34:38.078Z,3.13
2023-05-02T19:37:04.222Z,2.90
2023-05-02T19:39:31.457Z,2.63
2023-05-02T19:41:56.256Z,2.90
2023-05-02T19:44:21.732Z,2.65
2023-05-02T19:46:48.496Z,3.13
2023-05-02T19:49:14.554Z,2.70
2023-05-02T19:51:39.387Z,3.03
2023-05-02T19:54:04.174Z,2.90
2023-05-02T19:56:29.013Z,3.25
2023-05-02T19:58:57.197Z,2.90
2023-05-02T20:01:27.282Z,3.30
2023-05-02T20:03:55.273Z,2.75
2023-05-02T20:06:24.934Z,2.90
2023-05-02T20:08:52.129Z,3.20
2023-05-02T20:11:26.371Z,2.92
2023-05-02T20:13:51.661Z,3.63
2023-05-02T20:16:18.977Z,4.45
2023-05-02T20:18:43.616Z,3.22
2023-05-02T20:21:08.202Z,3.30
2023-05-02T20:23:34.220Z,2.78
2023-05-02T20:26:00.887Z,3.08
2023-05-02T20:28:25.986Z,2.90
2023-05-02T20:30:50.644Z,2.85
2023-05-02T20:33:16.748Z,2.72
2023-05-02T20:35:42.554Z,2.92
2023-05-02T20:38:11.102Z,2.60
2023-05-02T20:40:55.383Z,3.10
2023-05-02T20:43:20.077Z,2.80
2023-05-02T20:45:45.439Z,2.72
2023-05-02T20:48:10.497Z,2.70
2023-05-02T20:50:35.411Z,2.50
2023-05-02T20:53:00.634Z,2.97
2023-05-02T20:55:25.966Z,3.33
2023-05-02T20:57:55.386Z,3.03
2023-05-02T21:00:22.539Z,2.90
2023-05-02T21:02:51.988Z,3.30
2023-05-02T21:05:17.611Z,3.15
2023-05-02T21:07:42.234Z,2.67
2023-05-02T21:10:08.529Z,3.00
2023-05-02T21:12:33.228Z,2.72
2023-05-02T21:15:01.814Z,2.97
2023-05-02T21:17:29.394Z,3.70
2023-05-02T21:19:55.973Z,2.85
2023-05-02T21:22:24.907Z,3.22
2023-05-02T21:24:50.685Z,3.25
2023-05-02T21:27:16.183Z,3.05
2023-05-02T21:29:41.022Z,3.47
2023-05-02T21:32:10.414Z,3.80
2023-05-02T21:34:35.530Z,3.40
2023-05-02T21:37:00.163Z,3.50
2023-05-02T21:39:26.462Z,3.65
2023-05-02T21:41:52.505Z,3.58
2023-05-02T21:44:17.004Z,3.15
2023-05-02T21:46:42.390Z,3.53
2023-05-02T21:49:08.830Z,4.05
2023-05-02T21:51:34.475Z,3.53
2023-05-02T21:53:59.148Z,3.45
2023-05-02T21:56:23.920Z,3.88
2023-05-02T21:58:51.221Z,4.13
2023-05-02T22:01:16.217Z,3.88
2023-05-02T22:03:41.173Z,3.35
2023-05-02T22:06:07.967Z,3.75
2023-05-02T22:08:32.719Z,3.85
2023-05-02T22:10:58.903Z,3.83
2023-05-02T22:13:24.200Z,3.75
2023-05-02T22:15:50.962Z,4.03
2023-05-02T22:18:16.890Z,3.70
2023-05-02T22:20:42.141Z,4.75
2023-05-02T22:23:08.461Z,3.92
2023-05-02T22:25:35.930Z,3.80
2023-05-02T22:28:09.350Z,4.05
2023-05-02T22:30:34.098Z,4.47
2023-05-02T22:32:58.904Z,4.22
2023-05-02T22:35:23.859Z,3.92
2023-05-02T22:37:48.618Z,3.65
2023-05-02T22:40:15.302Z,4.80
2023-05-02T22:42:40.338Z,4.32
2023-05-02T22:45:07.719Z,4.07
2023-05-02T22:47:32.588Z,4.22
2023-05-02T22:49:59.743Z,4.97
2023-05-02T22:52:27.552Z,4.20
2023-05-02T22:54:52.164Z,4.50
2023-05-02T22:57:18.260Z,4.70
2023-05-02T22:59:42.948Z,4.40
2023-05-02T23:02:10.902Z,4.30
2023-05-02T23:04:35.548Z,3.70
2023-05-02T23:07:01.426Z,4.25
2023-05-02T23:13:23.893Z,4.40
2023-05-02T23:15:53.310Z,4.30
2023-05-02T23:18:18.041Z,4.28
2023-05-02T23:20:42.613Z,4.30
2023-05-02T23:23:07.195Z,4.90
2023-05-02T23:25:32.296Z,4.55
2023-05-02T23:27:56.967Z,5.10
2023-05-02T23:30:24.466Z,4.57
2023-05-02T23:32:49.353Z,4.60
2023-05-02T23:35:14.260Z,4.65
2023-05-02T23:37:39.811Z,5.10
2023-05-02T23:40:04.907Z,5.05
2023-05-02T23:42:33.280Z,5.30
2023-05-02T23:44:58.174Z,4.60
2023-05-02T23:47:27.252Z,4.90
2023-05-02T23:49:51.906Z,4.80
2023-05-02T23:52:16.606Z,5.70
2023-05-02T23:54:41.364Z,5.20
2023-05-02T23:57:09.340Z,5.78
2023-05-02T23:59:34.256Z,5.40
